Strona główna
METAR-TAF:

METAR-TAF

Lotnisko :

Port lotniczy El Alto

La Paz, Boliwia

Szerokość geograficzna: 16-31S, Długość geograficzna: 068-11W, wysokość: 4058 m

Aktualna obserwacja pogody

Raport powstał 42 minut temu, godzina 09:00 UTC
Wiatr 6 kt od wschód
Temperatura
Ciśnienie 1038 hPa
Widzialność: 2000 m
Mało chmury na wysokości 300 ft
mgła w pobliże

METAR: SLLP 100900Z 10006KT 2000E VCFG FEW003 SCT00805/05 Q1038

czas: 05:42 (09:42 UTC)

Prognoza

Raport powstał 4 godziny i 52 minut temu, godzina 04:50 UTC
Prognoza ważna od 10 godzina 06 UTC do 11 godzina 06 UTC
Wiatr 5 kt od północny wschód
Widzialność 10 km lub więcej
Mało chmury na wysokości 1300 ft
Prawdopodobieństwo 30% :
Przejściowo
od 10 godzina 08 UTC do 10 godzina 11 UTC
Widzialność: 3000 m
mgła w pobliże
Przejściowo
od 10 godzina 19 UTC do 10 godzina 22 UTC
Wiatr 10 kt od zachód w porywach dochodzący do 20 kt

TAF: SLLP 100450Z 1006/1106 04005KT 9999 FEW013 TX18/1020Z TN00/1010Z PROB30 TEMPO 1008/1011 3000E VCFG TEMPO 1019/1022 26010G20KT

Obserwacja i prognoza pogody dla ponad 4000 lotnisk (raport METAR i TAF).

Dostępne stacje oznaczono żółtymi i czerwonymi punktami na mapie.

Najedź kursorem aby zobaczyć nazwę stacji.

Kliknij aby zobaczyć obserwacje i prognozy pogody.

Aby zmienić mapę: kliknij na zielony przycisk z czarnym krzyżykiem, aby powiększyć; na zielony przycisk z myślnikiem, aby pomniejszyć; na zielone strzałki, aby przejść do map sąsiednich.


METAR-TAF: